createdAt,value
2023-05-25T00:00:38.290Z,102557.00
2023-05-25T00:03:15.167Z,102553.03
2023-05-25T02:17:02.016Z,102608.53
2023-05-25T02:19:35.023Z,102604.53
2023-05-25T02:22:08.159Z,102612.72
2023-05-25T02:24:41.394Z,102609.97
2023-05-25T02:27:14.712Z,102608.72
2023-05-25T02:29:47.508Z,102609.00
2023-05-25T02:32:22.440Z,102609.81
2023-05-25T02:34:56.289Z,102609.81
2023-05-25T02:37:29.300Z,102610.69
2023-05-25T02:40:02.145Z,102609.38
2023-05-25T02:42:34.923Z,102616.94
2023-05-25T02:45:10.583Z,102616.78
2023-05-25T02:47:46.204Z,102623.13
2023-05-25T02:50:19.225Z,102621.88
2023-05-25T02:52:54.991Z,102627.41
2023-05-25T02:55:27.830Z,102616.72
2023-05-25T02:58:00.979Z,102614.66
2023-05-25T03:00:54.643Z,102619.63
2023-05-25T03:03:29.050Z,102624.28
2023-05-25T03:06:04.313Z,102622.50
2023-05-25T03:08:37.470Z,102634.44
2023-05-25T03:11:10.313Z,102633.66
2023-05-25T03:13:43.667Z,102636.75
2023-05-25T03:16:16.525Z,102643.81
2023-05-25T03:18:50.978Z,102643.75
2023-05-25T03:21:23.890Z,102634.97
2023-05-25T03:23:56.667Z,102635.78
2023-05-25T03:26:30.638Z,102638.91
2023-05-25T03:29:03.441Z,102632.03
2023-05-25T03:31:36.741Z,102630.88
2023-05-25T03:34:10.844Z,102640.69
2023-05-25T03:36:45.717Z,102626.44
2023-05-25T03:39:20.062Z,102639.34
2023-05-25T03:41:52.950Z,102641.06
2023-05-25T03:44:26.114Z,102634.63
2023-05-25T03:46:59.500Z,102633.41
2023-05-25T03:49:34.658Z,102642.41
2023-05-25T03:52:07.819Z,102639.97
2023-05-25T03:54:40.595Z,102645.44
2023-05-25T03:57:15.054Z,102644.63
2023-05-25T03:59:47.920Z,102648.56
2023-05-25T04:02:20.583Z,102647.81
2023-05-25T04:04:56.564Z,102649.41
2023-05-25T04:07:31.117Z,102640.69
2023-05-25T04:10:04.810Z,102645.31
2023-05-25T04:12:38.508Z,102651.31
2023-05-25T04:15:14.212Z,102651.94
2023-05-25T04:18:13.419Z,102652.28
2023-05-25T04:20:48.392Z,102649.06
2023-05-25T04:23:22.612Z,102652.28
2023-05-25T04:25:58.079Z,102656.38
2023-05-25T04:28:31.118Z,102658.63
2023-05-25T04:31:14.898Z,102656.28
2023-05-25T04:33:59.167Z,102661.69
2023-05-25T04:36:38.749Z,102672.41
2023-05-25T04:39:12.912Z,102664.63
2023-05-25T04:41:51.774Z,102680.50
2023-05-25T04:44:25.715Z,102667.88
2023-05-25T04:47:01.291Z,102676.22
2023-05-25T04:49:39.978Z,102678.63
2023-05-25T04:52:15.640Z,102680.84
2023-05-25T04:54:48.470Z,102682.19
2023-05-25T04:57:22.288Z,102682.38
2023-05-25T04:59:55.815Z,102684.63
2023-05-25T05:02:28.492Z,102685.44
2023-05-25T05:05:01.421Z,102686.91
2023-05-25T05:07:36.046Z,102691.38
2023-05-25T05:10:10.060Z,102689.44
2023-05-25T05:12:45.431Z,102697.09
2023-05-25T05:15:18.386Z,102706.06
2023-05-25T05:17:52.854Z,102706.00
2023-05-25T05:20:25.925Z,102709.56
2023-05-25T05:23:00.563Z,102705.47
2023-05-25T05:25:33.767Z,102700.13
2023-05-25T05:28:08.146Z,102705.88
2023-05-25T05:30:47.395Z,102704.47
2023-05-25T05:33:20.749Z,102704.47
2023-05-25T05:35:54.705Z,102705.09
2023-05-25T05:38:30.042Z,102702.00
2023-05-25T05:41:03.185Z,102705.88
2023-05-25T05:43:36.519Z,102712.66
2023-05-25T05:46:10.962Z,102714.13
2023-05-25T05:48:47.183Z,102714.44
2023-05-25T05:51:24.742Z,102718.44
2023-05-25T05:53:59.155Z,102722.47
2023-05-25T06:02:24.057Z,102738.34
2023-05-25T06:31:32.115Z,102743.09
2023-05-25T06:34:06.049Z,102737.41
2023-05-25T06:36:39.401Z,102746.91
2023-05-25T06:39:12.197Z,102750.16
2023-05-25T06:41:45.216Z,102748.00
2023-05-25T06:44:21.833Z,102748.94
2023-05-25T06:46:56.126Z,102757.13
2023-05-25T06:49:29.396Z,102760.34
2023-05-25T06:52:02.200Z,102766.34
2023-05-25T06:54:35.048Z,102758.41
2023-05-25T06:57:08.246Z,102754.69
2023-05-25T06:59:40.975Z,102769.66
2023-05-25T07:02:15.433Z,102777.31
2023-05-25T07:04:48.334Z,102780.72
2023-05-25T07:07:22.519Z,102784.63
2023-05-25T07:09:55.350Z,102789.63
2023-05-25T07:12:28.287Z,102796.00
2023-05-25T07:15:01.287Z,102789.50
2023-05-25T07:17:36.640Z,102795.72
2023-05-25T07:20:10.664Z,102789.66
2023-05-25T07:22:44.623Z,102793.31
2023-05-25T07:25:17.548Z,102790.78
2023-05-25T07:27:50.426Z,102792.81
2023-05-25T07:30:23.459Z,102802.88
2023-05-25T07:32:58.412Z,102795.78
2023-05-25T07:35:31.268Z,102797.56
2023-05-25T07:38:05.756Z,102810.25
2023-05-25T07:40:38.716Z,102807.97
2023-05-25T07:43:11.364Z,102812.69
2023-05-25T07:45:44.372Z,102822.34
2023-05-25T07:48:18.756Z,102815.34
2023-05-25T07:50:51.608Z,102818.47
2023-05-25T07:53:24.624Z,102821.66
2023-05-25T07:55:57.449Z,102817.50
2023-05-25T07:58:30.295Z,102819.56
2023-05-25T08:01:03.282Z,102826.59
2023-05-25T08:03:49.112Z,102830.78
2023-05-25T08:06:23.139Z,102834.09
2023-05-25T08:08:55.845Z,102831.09
2023-05-25T08:11:28.763Z,102839.28
2023-05-25T08:14:02.207Z,102833.97
2023-05-25T08:16:35.111Z,102840.56
2023-05-25T08:19:09.455Z,102833.69
2023-05-25T08:21:42.381Z,102833.78
2023-05-25T08:24:15.237Z,102839.25
2023-05-25T08:26:54.703Z,102851.56
2023-05-25T08:29:28.048Z,102847.13
2023-05-25T08:32:00.944Z,102846.81
2023-05-25T08:34:35.797Z,102851.84
2023-05-25T08:37:08.656Z,102853.53
2023-05-25T08:39:41.386Z,102852.22
2023-05-25T08:42:14.181Z,102854.91
2023-05-25T08:44:47.105Z,102854.63
2023-05-25T08:47:23.008Z,102864.63
2023-05-25T08:49:58.274Z,102863.53
2023-05-25T08:52:35.281Z,102864.84
2023-05-25T08:55:13.375Z,102860.47
2023-05-25T08:57:53.120Z,102868.31
2023-05-25T09:00:32.947Z,102864.34
2023-05-25T09:03:10.441Z,102860.34
2023-05-25T09:05:45.136Z,102863.53
2023-05-25T09:08:18.528Z,102865.13
2023-05-25T09:10:52.752Z,102867.16
2023-05-25T09:13:25.674Z,102869.19
2023-05-25T09:15:58.392Z,102863.22
2023-05-25T09:18:31.246Z,102863.44
2023-05-25T09:21:05.695Z,102860.66
2023-05-25T09:23:38.829Z,102869.72
2023-05-25T09:26:12.017Z,102868.94
2023-05-25T09:28:48.343Z,102864.94
2023-05-25T09:31:24.555Z,102864.53
2023-05-25T09:34:00.180Z,102863.38
2023-05-25T09:36:35.816Z,102873.34
2023-05-25T09:39:10.354Z,102871.25
2023-05-25T09:41:44.112Z,102878.41
2023-05-25T09:44:16.858Z,102869.31
2023-05-25T09:46:50.260Z,102868.09
2023-05-25T09:49:23.111Z,102878.56
2023-05-25T09:51:57.331Z,102865.50
2023-05-25T09:54:30.591Z,102879.88
2023-05-25T09:57:04.217Z,102867.63
2023-05-25T09:59:37.225Z,102878.00
2023-05-25T10:02:10.076Z,102873.31
2023-05-25T10:04:43.102Z,102879.72
2023-05-25T10:07:17.848Z,102883.78
2023-05-25T10:09:53.593Z,102886.16
2023-05-25T10:12:27.630Z,102887.84
2023-05-25T10:15:03.927Z,102883.94
2023-05-25T10:17:40.181Z,102879.59
2023-05-25T10:20:14.797Z,102886.34
2023-05-25T10:22:55.485Z,102889.25
2023-05-25T10:25:32.605Z,102881.00
2023-05-25T10:28:14.640Z,102880.22
2023-05-25T10:30:48.672Z,102878.28
2023-05-25T10:33:22.433Z,102873.59
2023-05-25T10:36:03.166Z,102883.16
2023-05-25T10:38:44.838Z,102880.22
2023-05-25T10:41:18.896Z,102887.97
2023-05-25T10:43:53.589Z,102880.13
2023-05-25T10:46:26.798Z,102888.19
2023-05-25T10:49:02.598Z,102891.50
2023-05-25T10:51:38.901Z,102883.53
2023-05-25T10:54:14.810Z,102893.59
2023-05-25T10:57:12.752Z,102889.28
2023-05-25T10:59:50.717Z,102893.69
2023-05-25T11:02:24.371Z,102895.25
2023-05-25T11:05:32.488Z,102890.00
2023-05-25T11:08:08.566Z,102884.06
2023-05-25T11:10:54.051Z,102890.06
2023-05-25T11:13:40.676Z,102888.91
2023-05-25T11:16:24.702Z,102883.75
2023-05-25T11:18:59.941Z,102887.38
2023-05-25T11:21:43.886Z,102885.34
2023-05-25T11:24:18.855Z,102890.16
2023-05-25T11:26:57.738Z,102891.38
2023-05-25T11:29:33.413Z,102889.38
2023-05-25T11:32:13.190Z,102878.59
2023-05-25T11:34:47.555Z,102877.41
2023-05-25T11:37:22.063Z,102880.63
2023-05-25T11:39:55.298Z,102877.84
2023-05-25T11:42:30.995Z,102877.47
2023-05-25T11:45:04.013Z,102878.25
2023-05-25T11:47:38.042Z,102881.44
2023-05-25T11:50:16.927Z,102875.88
2023-05-25T11:52:49.724Z,102874.28
2023-05-25T11:55:22.574Z,102879.06
2023-05-25T11:57:59.654Z,102881.06
2023-05-25T12:00:32.702Z,102880.66
2023-05-25T12:03:05.753Z,102882.63
2023-05-25T12:05:39.603Z,102867.03
2023-05-25T12:08:12.400Z,102876.19
2023-05-25T12:10:52.120Z,102872.59
2023-05-25T12:13:26.371Z,102870.19
2023-05-25T12:16:00.228Z,102863.75
2023-05-25T12:18:33.180Z,102863.28
2023-05-25T12:21:08.401Z,102857.34
2023-05-25T12:23:41.479Z,102862.19
2023-05-25T12:26:16.264Z,102860.19
2023-05-25T12:29:04.809Z,102857.41
2023-05-25T12:31:39.378Z,102858.63
2023-05-25T12:34:13.723Z,102857.00
2023-05-25T12:36:48.772Z,102862.63
2023-05-25T12:39:34.758Z,102860.69
2023-05-25T12:42:15.200Z,102871.81
2023-05-25T12:44:57.817Z,102869.47
2023-05-25T12:47:32.258Z,102870.25
2023-05-25T12:50:15.873Z,102867.88
2023-05-25T12:52:49.431Z,102855.13
2023-05-25T12:55:25.996Z,102857.16
2023-05-25T12:58:00.145Z,102861.56
2023-05-25T13:00:36.087Z,102865.56
2023-05-25T13:03:09.403Z,102856.38
2023-05-25T13:05:42.372Z,102855.19
2023-05-25T13:08:15.697Z,102848.34
2023-05-25T13:10:51.783Z,102855.19
2023-05-25T13:13:24.520Z,102848.81
2023-05-25T13:15:59.382Z,102846.41
2023-05-25T13:18:32.181Z,102848.81
2023-05-25T13:21:05.149Z,102848.38
2023-05-25T13:23:38.520Z,102850.41
2023-05-25T13:26:12.320Z,102836.41
2023-05-25T13:28:45.072Z,102853.53
2023-05-25T13:31:19.274Z,102851.97
2023-05-25T13:33:52.189Z,102835.97
2023-05-25T13:36:24.913Z,102835.97
2023-05-25T13:38:59.140Z,102847.94
2023-05-25T13:41:32.209Z,102847.88
2023-05-25T13:44:05.046Z,102838.72
2023-05-25T13:46:39.607Z,102835.88
2023-05-25T13:49:15.185Z,102828.72
2023-05-25T13:51:48.096Z,102835.09
2023-05-25T13:54:21.783Z,102834.25
2023-05-25T13:56:54.721Z,102831.13
2023-05-25T13:59:27.679Z,102826.69
2023-05-25T14:02:02.192Z,102829.09
2023-05-25T14:04:35.645Z,102831.56
2023-05-25T14:07:08.740Z,102839.94
2023-05-25T14:09:41.580Z,102839.13
2023-05-25T14:12:14.476Z,102835.94
2023-05-25T14:14:47.426Z,102833.50
2023-05-25T14:17:21.406Z,102828.28
2023-05-25T14:19:54.240Z,102827.84
2023-05-25T14:22:27.929Z,102837.91
2023-05-25T14:25:00.704Z,102836.63
2023-05-25T14:27:33.690Z,102836.59
2023-05-25T14:30:08.044Z,102828.94
2023-05-25T14:32:42.506Z,102841.31
2023-05-25T14:35:15.549Z,102836.22
2023-05-25T14:37:48.278Z,102845.44
2023-05-25T14:40:22.100Z,102841.09
2023-05-25T14:42:56.020Z,102842.28
2023-05-25T14:45:28.950Z,102839.13
2023-05-25T14:48:16.145Z,102841.56
2023-05-25T14:50:49.871Z,102844.78
2023-05-25T14:53:22.480Z,102835.59
2023-05-25T14:55:55.239Z,102833.56
2023-05-25T14:58:28.873Z,102834.38
2023-05-25T15:01:01.686Z,102826.38
2023-05-25T15:03:35.865Z,102824.78
2023-05-25T15:06:08.786Z,102826.38
2023-05-25T15:08:41.617Z,102825.97
2023-05-25T15:11:14.509Z,102824.34
2023-05-25T15:13:48.337Z,102816.63
2023-05-25T15:16:21.285Z,102816.13
2023-05-25T15:18:55.462Z,102820.50
2023-05-25T15:21:28.226Z,102815.66
2023-05-25T15:24:01.001Z,102819.47
2023-05-25T15:26:33.853Z,102826.69
2023-05-25T15:29:10.903Z,102827.41
2023-05-25T15:31:43.864Z,102826.50
2023-05-25T15:34:17.858Z,102829.81
2023-05-25T15:36:50.586Z,102832.16
2023-05-25T15:39:23.384Z,102825.75
2023-05-25T15:41:56.046Z,102829.72
2023-05-25T15:44:30.274Z,102824.84
2023-05-25T15:47:03.103Z,102819.16
2023-05-25T15:49:37.488Z,102833.53
2023-05-25T15:52:10.332Z,102833.59
2023-05-25T15:54:42.946Z,102828.34
2023-05-25T15:57:15.714Z,102837.53
2023-05-25T15:59:48.995Z,102830.31
2023-05-25T16:02:21.809Z,102840.75
2023-05-25T16:04:56.097Z,102835.53
2023-05-25T16:07:28.853Z,102835.91
2023-05-25T16:10:01.603Z,102844.03
2023-05-25T16:12:34.234Z,102838.44
2023-05-25T16:15:07.868Z,102837.22
2023-05-25T16:17:40.583Z,102845.63
2023-05-25T16:20:14.921Z,102836.16
2023-05-25T16:22:47.666Z,102833.00
2023-05-25T16:25:21.175Z,102831.06
2023-05-25T16:27:53.872Z,102837.44
2023-05-25T16:30:26.739Z,102836.31
2023-05-25T16:32:59.507Z,102832.31
2023-05-25T16:35:33.617Z,102830.78
2023-05-25T16:38:06.496Z,102826.00
2023-05-25T16:40:39.204Z,102830.03
2023-05-25T16:43:14.461Z,102830.88
2023-05-25T16:45:47.618Z,102818.88
2023-05-25T16:48:23.076Z,102825.69
2023-05-25T16:50:57.353Z,102833.34
2023-05-25T16:53:30.293Z,102830.94
2023-05-25T16:56:03.155Z,102821.75
2023-05-25T16:58:36.510Z,102819.03
2023-05-25T17:01:11.294Z,102828.25
2023-05-25T17:03:44.304Z,102826.28
2023-05-25T17:06:18.506Z,102831.13
2023-05-25T17:08:51.281Z,102825.56
2023-05-25T17:11:26.411Z,102823.19
2023-05-25T17:13:59.426Z,102821.63
2023-05-25T17:16:32.279Z,102828.81
2023-05-25T17:19:05.541Z,102828.03
2023-05-25T17:21:39.994Z,102826.06
2023-05-25T17:24:15.565Z,102822.50
2023-05-25T17:26:50.123Z,102832.47
2023-05-25T17:29:23.300Z,102826.44
2023-05-25T17:31:59.305Z,102819.25
2023-05-25T17:34:31.891Z,102820.03
2023-05-25T17:37:09.384Z,102824.41
2023-05-25T17:39:42.659Z,102821.97
2023-05-25T17:42:17.514Z,102830.72
2023-05-25T17:44:50.774Z,102823.53
2023-05-25T17:47:24.049Z,102829.09
2023-05-25T17:49:59.403Z,102829.84
2023-05-25T17:52:33.653Z,102823.84
2023-05-25T17:55:07.295Z,102817.44
2023-05-25T17:57:40.043Z,102825.75
2023-05-25T18:00:14.380Z,102828.50
2023-05-25T18:02:47.252Z,102826.50
2023-05-25T18:05:19.924Z,102825.25
2023-05-25T18:07:54.128Z,102828.41
2023-05-25T18:10:29.570Z,102830.72
2023-05-25T18:13:02.667Z,102825.91
2023-05-25T18:15:38.216Z,102832.16
2023-05-25T18:18:11.116Z,102830.94
2023-05-25T18:20:46.350Z,102828.09
2023-05-25T18:23:24.446Z,102831.97
2023-05-25T18:25:57.341Z,102829.19
2023-05-25T18:28:31.405Z,102833.50
2023-05-25T18:31:04.600Z,102825.47
2023-05-25T18:33:37.773Z,102822.31
2023-05-25T18:36:10.573Z,102822.25
2023-05-25T18:38:44.827Z,102826.16
2023-05-25T18:41:19.782Z,102819.81
2023-05-25T18:43:54.019Z,102822.91
2023-05-25T18:46:29.500Z,102818.09
2023-05-25T18:49:02.691Z,102816.47
2023-05-25T18:51:36.290Z,102821.00
2023-05-25T18:54:12.440Z,102825.88
2023-05-25T18:56:45.254Z,102823.94
2023-05-25T18:59:18.220Z,102823.00
2023-05-25T19:01:51.353Z,102836.75
2023-05-25T19:04:24.274Z,102835.22
2023-05-25T19:06:56.925Z,102838.34
2023-05-25T19:09:35.502Z,102832.69
2023-05-25T19:12:08.816Z,102835.47
2023-05-25T19:14:42.129Z,102831.88
2023-05-25T19:17:15.066Z,102840.16
2023-05-25T19:19:47.901Z,102842.47
2023-05-25T19:22:20.784Z,102835.66
2023-05-25T19:25:00.765Z,102841.22
2023-05-25T19:27:34.080Z,102846.78
2023-05-25T19:30:08.223Z,102842.72
2023-05-25T19:32:41.171Z,102857.28
2023-05-25T19:35:14.071Z,102859.59
2023-05-25T19:37:46.937Z,102853.84
2023-05-25T19:40:21.235Z,102859.00
2023-05-25T19:42:54.054Z,102858.34
2023-05-25T19:45:26.940Z,102869.38
2023-05-25T19:47:59.564Z,102871.47
2023-05-25T19:50:35.487Z,102874.88
2023-05-25T19:53:08.480Z,102876.06
2023-05-25T19:55:42.674Z,102885.56
2023-05-25T19:58:15.544Z,102879.59
2023-05-25T20:00:48.401Z,102896.91
2023-05-25T20:03:22.000Z,102898.75
2023-05-25T20:05:56.936Z,102894.00
2023-05-25T20:08:29.806Z,102889.75
2023-05-25T20:11:04.072Z,102892.66
2023-05-25T20:13:37.178Z,102897.41
2023-05-25T20:16:10.746Z,102889.25
2023-05-25T20:18:45.616Z,102895.13
2023-05-25T20:21:22.426Z,102896.78
2023-05-25T20:23:55.140Z,102895.78
2023-05-25T20:26:29.324Z,102893.78
2023-05-25T20:29:02.202Z,102904.44
2023-05-25T20:31:34.917Z,102910.81
2023-05-25T20:34:07.769Z,102899.13
2023-05-25T20:36:43.377Z,102904.44
2023-05-25T20:39:16.301Z,102904.16
2023-05-25T20:44:48.186Z,102903.44
2023-05-25T20:47:21.390Z,102903.13
2023-05-25T20:50:15.120Z,102910.28
2023-05-25T22:04:11.614Z,102923.78
2023-05-25T22:06:44.424Z,102923.28
2023-05-25T22:09:17.788Z,102923.97
2023-05-25T22:11:50.562Z,102927.19
2023-05-25T22:14:23.421Z,102926.28
2023-05-25T22:16:56.193Z,102929.31
2023-05-25T22:19:31.182Z,102926.78
2023-05-25T22:22:03.934Z,102925.66
2023-05-25T22:24:36.643Z,102923.84
2023-05-25T22:27:09.346Z,102921.00
2023-05-25T22:29:44.194Z,102922.50
2023-05-25T22:32:16.953Z,102923.19
2023-05-25T22:34:51.097Z,102922.59
2023-05-25T22:37:23.805Z,102918.38
2023-05-25T22:39:57.501Z,102922.97
2023-05-25T22:58:04.538Z,102915.88
2023-05-25T23:00:37.454Z,102916.16
2023-05-25T23:03:10.424Z,102921.66
2023-05-25T23:05:43.445Z,102920.75
2023-05-25T23:08:16.467Z,102909.59
2023-05-25T23:10:49.182Z,102917.34
2023-05-25T23:13:24.509Z,102923.66
2023-05-25T23:15:57.235Z,102919.44
2023-05-25T23:18:30.076Z,102926.78
2023-05-25T23:21:02.821Z,102924.38
2023-05-25T23:23:36.130Z,102919.19
2023-05-25T23:26:09.042Z,102924.38
2023-05-25T23:44:16.247Z,102935.22
2023-05-25T23:46:49.027Z,102935.94
2023-05-25T23:49:22.033Z,102930.28
2023-05-25T23:51:54.654Z,102931.94
2023-05-25T23:54:27.491Z,102927.66
2023-05-25T23:57:00.296Z,102924.78
2023-05-25T23:59:34.579Z,102928.81
